METAR Data
IDs: Format: Raw Decoded Include TAF

Data at: 2137 UTC 24 Mar 2019

KGPM 242050Z 20010G18KT 10SM SCT045 28/16 A2998
KGPM 241950Z 19010G15KT 10SM SCT041 27/16 A2999
KGPM 241850Z 18010KT 10SM SCT035 SCT041 26/16 A3002
KGPM 241750Z 20011KT 10SM BKN029 24/16 A3005
KGPM 241650Z 20011KT 10SM SCT027 23/16 A3006
KGPM 241550Z 18005KT 10SM SCT021 22/16 A3007
KGPM 241430Z 18005KT 10SM BKN009 18/18 A3006
KGPM 241350Z 18005KT 10SM BKN009 18/18 A3006
KGPM 241335Z AUTO 18009G16KT 10SM OVC009 17/17 A3006 RMK AO2 T01720172
KGPM 241315Z AUTO 18008KT 10SM OVC009 17/17 A3005 RMK AO2 T01660166
KGPM 241305Z 18005KT 10SM BKN009 16/16 A3005
KGPM 241255Z AUTO 18006KT 10SM BKN009 16/16 A3005 RMK AO2 T01610161
KGPM 241250Z 18005KT 10SM SCT009 16/16 A3005
KGPM 241240Z AUTO 19005KT 10SM CLR 16/16 A3005 RMK AO2 T01600160
KGPM 241215Z AUTO 18006KT 10SM CLR 16/16 A3004 RMK AO2 T01600160
KGPM 241155Z AUTO 18006KT 10SM CLR 16/16 A3004 RMK AO2 70001 T01600160 10189 20160
KGPM 241150Z 18005KT 10SM SKC 16/16 A3004
KGPM 241135Z AUTO 17006KT 10SM CLR 16/16 A3004 RMK AO2 T01600160
KGPM 241120Z AUTO 17005KT 10SM CLR 16/16 A3003 RMK AO2 T01610161
KGPM 241055Z AUTO 17005KT 10SM CLR 16/16 A3003 RMK AO2 T01620162
KGPM 241035Z AUTO 18007KT 10SM CLR 16/16 A3003 RMK AO2 T01640164
KGPM 241015Z AUTO 18006KT 10SM CLR 17/17 A3003 RMK AO2 T01650165
KGPM 240955Z AUTO 18005KT 10SM CLR 17/15 A3003 RMK AO2 T01660154
KGPM 240935Z AUTO 17006KT 10SM CLR 17/14 A3003 RMK AO2 T01680142
KGPM 240915Z AUTO 18007KT 10SM CLR 17/14 A3003 RMK AO2 T01700141
KGPM 240855Z AUTO 18007KT 10SM SCT022 17/14 A3003 RMK AO2 T01710142
KGPM 240835Z AUTO 18007G15KT 10SM SCT022 17/14 A3003 RMK AO2 T01730141
KGPM 240815Z AUTO 18010KT 10SM CLR 18/14 A3004 RMK AO2 T01750141
KGPM 240755Z AUTO 18007KT 10SM CLR 18/14 A3004 RMK AO2 T01760141
KGPM 240735Z AUTO 17010G15KT 10SM CLR 18/14 A3004 RMK AO2 T01770140
KGPM 240715Z AUTO 17008G14KT 10SM SCT037 18/14 A3004 RMK AO2 T01790140
KGPM 240655Z AUTO 18008G15KT 10SM CLR 18/14 A3004 RMK AO2 T01810140
KGPM 240635Z AUTO 18009G17KT 10SM CLR 19/14 A3004 RMK AO2 T01850140
KGPM 240615Z AUTO 18010G16KT 10SM SCT037 19/14 A3004 RMK AO2 T01870140
KGPM 240555Z AUTO 17011G16KT 140V200 10SM OVC035 19/14 A3003 RMK AO2 T01900140 10205 20188 402150152
KGPM 240535Z AUTO 17010G17KT 10SM OVC035 19/14 A3003 RMK AO2 T01900140
KGPM 240515Z AUTO 18007G14KT 10SM OVC033 19/14 A3003 RMK AO2 T01900140
KGPM 240455Z AUTO 18011G19KT 10SM BKN033 19/14 A3003 RMK AO2 T01900138
KGPM 240435Z AUTO 17009KT 10SM SCT033 19/14 A3003 RMK AO2 T01900138
KGPM 240415Z AUTO 16009G15KT 10SM CLR 19/14 A3003 RMK AO2 T01910137
KGPM 240355Z AUTO 17008G15KT 10SM CLR 19/14 A3003 RMK AO2 T01910138
KGPM 240335Z AUTO 16007G14KT 10SM CLR 19/14 A3002 RMK AO2 T01920140
KGPM 240315Z AUTO 16011G15KT 10SM CLR 19/14 A3001 RMK AO2 T01930141
KGPM 240255Z AUTO 17010G15KT 10SM CLR 20/14 A3001 RMK AO2 T01950141
KGPM 240235Z AUTO 16008KT 10SM CLR 19/14 A3000 RMK AO2 T01930143
KGPM 240215Z AUTO 16007KT 10SM CLR 20/15 A3000 RMK AO2 T01950145
KGPM 240155Z AUTO 16008G14KT 10SM CLR 20/15 A3000 RMK AO2 T01950145
KGPM 240150Z 17009KT 10SM SKC 19/14 A2999
KGPM 240135Z AUTO 16010G14KT 10SM CLR 20/15 A2999 RMK AO2 T01950145
KGPM 240115Z AUTO 16009G16KT 10SM CLR 20/15 A2999 RMK AO2 T01960145
KGPM 240055Z AUTO 17010G15KT 10SM CLR 20/15 A3000 RMK AO2 T01960146
KGPM 240050Z 17010G15KT 10SM -RA BKN031 19/14 A2999
KGPM 240035Z AUTO 17010G16KT 10SM CLR 20/15 A3000 RMK AO2 T01980147
KGPM 240015Z AUTO 16011KT 10SM SCT034 20/15 A3000 RMK AO2 T02020146
KGPM 232350Z 18011G19KT 4SM -RA BKN015 OVC035 21/14 A3000
KGPM 232250Z 19005G16KT 10SM OVC031 21/14 A3000
KGPM 232150Z 17008KT 10SM OVC029 21/14 A3000
KGPM 232050Z 16010G18KT 10SM OVC027 21/14 A3001
KGPM 231950Z 18016KT 10SM BKN024 BKN030 20/14 A3003
KGPM 231850Z 17008G14KT 10SM BKN020 BKN025 19/14 A3005
KGPM 231751Z 18014KT 10SM SCT023 BKN034 18/13 A3010
KGPM 231750Z 18008KT 10SM OVC020 18/14 A3009
KGPM 231651Z 18014KT 10SM SCT023 BKN034 18/13 A3010
KGPM 231650Z 18014KT 10SM SCT023 BKN034 18/13 A3010
KGPM 231550Z 17009G15KT 10SM SCT021 SCT060 17/13 A3009
KGPM 231450Z 18006KT 5SM -RA SCT012 SCT018 17/12 A3009
KGPM 231350Z 18006KT 10SM SCT049 16/11 A3009
KGPM 231335Z AUTO 17009KT 10SM SCT045 16/10 A3008 RMK AO2 T01610102
KGPM 231315Z AUTO 17008KT 10SM BKN041 OVC048 16/10 A3007 RMK AO2 T01610097
KGPM 231255Z AUTO 17008KT 10SM OVC041 16/09 A3007 RMK AO2 T01560092
KGPM 231235Z AUTO 17005KT 10SM SCT043 SCT055 SCT080 16/09 A3007 RMK AO2 T01550087
KGPM 231215Z AUTO 18004KT 10SM SCT045 SCT055 SCT070 15/09 A3006 RMK AO2 T01530086
KGPM 231155Z AUTO 18006KT 10SM CLR 16/09 A3005 RMK AO2 T01550085 10197 20153
KGPM 231150Z 18006KT 10SM SKC 16/08 A3005
KGPM 231135Z AUTO 17006KT 10SM CLR 16/08 A3005 RMK AO2 T01550083
KGPM 231115Z AUTO 18006KT 10SM CLR 16/08 A3004 RMK AO2 T01550081
KGPM 231055Z AUTO 17006KT 10SM CLR 16/08 A3003 RMK AO2 T01560080
KGPM 231035Z AUTO 17005KT 10SM SCT070 16/08 A3003 RMK AO2 T01600080
KGPM 231015Z AUTO 16004KT 10SM SCT070 16/08 A3003 RMK AO2 T01620081
KGPM 230955Z AUTO 17006KT 10SM SCT070 17/08 A3003 RMK AO2 T01650081